Gures — CQIJ9 — position and weather

sailwx.info

Track history (hours):
 
Tides and Currents Weather Stations Pressure Air Temp Water Temp Dewpoint Dewpoint Depression Visibility Wind Speed Wind Dir Waves Ship Positions

Gures

Last reported at 2017-Oct-17 19:54 UTC. Time now 2017-Oct-20 19:36 UTC.
Position N 39°30' W 009°49'.

Length 118 m; draft 4.7 m.

Type: Cargo ship. MMSI: 255805981.

Date/timePositionNaut miles runAvg speedWind from/ knotsBaromVisibWave heightAir tempDewpointWater temp
2017-Oct-17 19:54N 39°30' W 009°49'511.8
2017-Oct-17 19:30N 39°26' W 009°49'611.8
2017-Oct-17 19:00N 39°20' W 009°49'611.8
2017-Oct-17 18:30N 39°14' W 009°50'611.7
2017-Oct-17 18:00N 39°08' W 009°50'611.9
2017-Oct-17 17:30N 39°02' W 009°50'612.2
2017-Oct-17 17:00N 38°56' W 009°50'612.2
2017-Oct-17 16:30N 38°50' W 009°50'612.4
2017-Oct-17 16:00N 38°44' W 009°50'612.2
2017-Oct-17 15:30N 38°38' W 009°48'612.4
2017-Oct-17 15:00N 38°32' W 009°46'612.4
2017-Oct-17 14:30N 38°26' W 009°45'612.5
2017-Oct-17 14:00N 38°19' W 009°43'612.3
2017-Oct-17 13:29N 38°13' W 009°42'612.2
2017-Oct-17 13:00N 38°07' W 009°41'612.1
2017-Oct-17 12:30N 38°02' W 009°39'612.1
2017-Oct-17 12:00N 37°56' W 009°36'611.9
2017-Oct-17 11:30N 37°50' W 009°35'6011.4
2017-Oct-17 06:15N 36°52' W 009°17'1411.5
2017-Oct-17 05:01N 36°44' W 009°02'112.1
2017-Oct-17 04:57N 36°43' W 009°01'611.7
2017-Oct-17 04:27N 36°42' W 008°54'611.8
2017-Oct-17 03:56N 36°39' W 008°47'2611.9
2017-Oct-17 01:43N 36°31' W 008°16'611.8
2017-Oct-17 01:12N 36°30' W 008°09'13112.3
2017-Oct-16 14:33N 35°58' W 005°31'112.6
2017-Oct-16 14:30N 35°57' W 005°30'4 0.3
2017-Oct-16 02:22N 35°53' W 005°30'2 2.6
2017-Oct-16 01:39N 35°55' W 005°31'3 6.5
2017-Oct-16 01:15N 35°54' W 005°34'0 1.4
2017-Oct-16 01:00N 35°54' W 005°34'1 1.0
2017-Oct-16 00:06N 35°54' W 005°35'0 3.6
2017-Oct-16 00:00N 35°54' W 005°35'2 3.7
2017-Oct-15 23:26N 35°56' W 005°34'3 5.7
2017-Oct-15 23:00N 35°58' W 005°32'2 4.5
2017-Oct-15 22:30N 35°58' W 005°29'4 7.1
2017-Oct-15 22:00N 35°59' W 005°25'611.7
2017-Oct-15 21:30N 35°56' W 005°19'2 3.3
2017-Oct-15 21:00N 35°54' W 005°19'0 0.0
2017-Oct-15 20:30N 35°54' W 005°19'0 0.0
2017-Oct-15 20:00N 35°54' W 005°19'0 0.0
2017-Oct-15 19:30N 35°54' W 005°19'0 0.0
2017-Oct-15 19:00N 35°54' W 005°19'0 0.0
2017-Oct-15 18:30N 35°54' W 005°19'1 1.9
2017-Oct-15 18:00N 35°55' W 005°19'3 5.7
2017-Oct-15 17:30N 35°57' W 005°16'21612.1
2017-Oct-14 23:38N 37°13' W 001°04'213.3
2017-Oct-14 23:30N 37°14' W 001°03'713.1
2017-Oct-14 22:59N 37°19' W 000°56'612.8
2017-Oct-14 22:29N 37°23' W 000°50'612.6
2017-Oct-14 21:59N 37°27' W 000°44'612.7
2017-Oct-14 21:30N 37°31' W 000°39'612.9
2017-Oct-14 21:00N 37°35' W 000°33'612.9
2017-Oct-14 20:31N 37°41' W 000°28'712.8
2017-Oct-14 19:59N 37°46' W 000°24'712.9
2017-Oct-14 19:27N 37°52' W 000°19'612.9
2017-Oct-14 18:58N 37°58' W 000°15'612.9
2017-Oct-14 18:30N 38°02' W 000°11'612.9
2017-Oct-14 18:01N 38°08' W 000°06'713.0
2017-Oct-14 17:30N 38°13' W 000°02'613.0
2017-Oct-14 17:01N 38°19' E 000°03'612.9
2017-Oct-14 16:31N 38°24' E 000°07'612.8
2017-Oct-14 16:00N 38°30' E 000°12'612.9
2017-Oct-14 15:30N 38°35' E 000°16'612.8
2017-Oct-14 15:01N 38°40' E 000°21'510.8
2017-Oct-14 14:30N 38°45' E 000°23'224 6.2
2017-Oct-13 02:08N 41°45' E 003°18'612.6
2017-Oct-13 01:41N 41°50' E 003°23'613.6
2017-Oct-13 01:14N 41°55' E 003°28'413.8
2017-Oct-13 00:58N 41°58' E 003°31'714.2
2017-Oct-13 00:30N 42°03' E 003°36'1014.0
2017-Oct-12 23:47N 42°11' E 003°44'513.8
2017-Oct-12 23:26N 42°15' E 003°48'613.7
2017-Oct-12 23:00N 42°20' E 003°53'713.8
2017-Oct-12 22:28N 42°25' E 003°60'713.8
2017-Oct-12 21:59N 42°30' E 004°06'714.0
2017-Oct-12 21:31N 42°35' E 004°11'713.9
2017-Oct-12 21:00N 42°41' E 004°17'713.5
2017-Oct-12 20:30N 42°46' E 004°23'713.6
2017-Oct-12 20:00N 42°51' E 004°29'713.6
2017-Oct-12 19:30N 42°57' E 004°34'713.6
2017-Oct-12 19:00N 43°02' E 004°40'713.3
2017-Oct-12 18:30N 43°07' E 004°46'713.5
2017-Oct-12 18:00N 43°12' E 004°52'713.6
2017-Oct-12 17:30N 43°18' E 004°57'611.4
2017-Oct-12 17:00N 43°23' E 004°59'2 3.3
2017-Oct-12 16:28N 43°24' E 005°01'0 0.0
2017-Oct-12 15:58N 43°24' E 005°01'0 0.0
2017-Oct-12 15:28N 43°24' E 005°01'0 0.0
2017-Oct-12 14:55N 43°24' E 005°01'0 0.0
2017-Oct-12 14:31N 43°24' E 005°01'0 0.0
2017-Oct-12 14:01N 43°24' E 005°01'0 0.0
2017-Oct-12 13:30N 43°24' E 005°01'0 0.0
2017-Oct-12 13:00N 43°24' E 005°01'0 0.0
2017-Oct-12 12:30N 43°24' E 005°01'0 0.0
2017-Oct-12 12:01N 43°24' E 005°01'0 0.0
2017-Oct-12 11:30N 43°24' E 005°01'0 0.0
2017-Oct-12 11:00N 43°24' E 005°01'0 0.0
2017-Oct-12 10:30N 43°24' E 005°01'0 0.0
2017-Oct-12 10:00N 43°24' E 005°01'0 0.0
2017-Oct-12 09:30N 43°24' E 005°01'0 0.0
2017-Oct-12 09:00N 43°24' E 005°01'0 0.0
2017-Oct-12 08:30N 43°24' E 005°01'0 0.0
2017-Oct-12 08:00N 43°24' E 005°01'0 0.0
2017-Oct-12 07:30N 43°24' E 005°01'0 0.0
2017-Oct-12 06:51N 43°24' E 005°01'0 0.0
2017-Oct-12 06:30N 43°24' E 005°01'0 0.0
2017-Oct-12 06:00N 43°24' E 005°01'0 0.0
2017-Oct-12 05:30N 43°24' E 005°01'0 0.0
2017-Oct-12 05:00N 43°24' E 005°01'0 0.0
2017-Oct-12 04:30N 43°24' E 005°01'0 0.0
2017-Oct-12 04:00N 43°24' E 005°01'0 0.0
2017-Oct-12 03:30N 43°24' E 005°01'0 0.0
2017-Oct-12 03:00N 43°24' E 005°01'0 0.0
2017-Oct-12 02:27N 43°24' E 005°01'0 0.0
2017-Oct-12 02:00N 43°24' E 005°01'0 0.0
2017-Oct-12 01:30N 43°24' E 005°01'0 0.0
2017-Oct-12 01:00N 43°24' E 005°01'0 0.0
2017-Oct-12 00:30N 43°24' E 005°01'0 0.0
2017-Oct-12 00:00N 43°24' E 005°01'0 0.0
2017-Oct-11 23:24N 43°24' E 005°01'0 0.0
2017-Oct-11 23:00N 43°24' E 005°01'0 0.0
2017-Oct-11 22:30N 43°24' E 005°01'0 0.0
2017-Oct-11 22:00N 43°24' E 005°01'0 0.0
2017-Oct-11 21:30N 43°24' E 005°01'0 0.0
2017-Oct-11 21:00N 43°24' E 005°01'0 0.0
2017-Oct-11 20:30N 43°24' E 005°01'0 0.0
2017-Oct-11 20:00N 43°24' E 005°01'0 0.0
2017-Oct-11 19:30N 43°24' E 005°01'0 0.0
2017-Oct-11 19:00N 43°24' E 005°01'0 0.0
2017-Oct-11 18:30N 43°24' E 005°01'0 0.0
2017-Oct-11 17:57N 43°24' E 005°01'0 0.0
2017-Oct-11 17:30N 43°24' E 005°01'0 0.0
2017-Oct-11 17:00N 43°24' E 005°01'27 1.6
2017-Oct-11 00:00N 42°58' E 004°52'4 8.8
2017-Oct-10 23:30N 42°55' E 004°49'4 9.0
2017-Oct-10 23:00N 42°51' E 004°45'4 8.8
2017-Oct-10 22:30N 42°48' E 004°42'5 9.2
2017-Oct-10 22:00N 42°45' E 004°37'611.0
2017-Oct-10 21:31N 42°40' E 004°32'611.9
2017-Oct-10 21:00N 42°36' E 004°27'612.2
2017-Oct-10 20:30N 42°31' E 004°22'36112.7
2017-Oct-09 15:59N 37°43' W 000°23'612.3
2017-Oct-09 15:30N 37°38' W 000°27'612.3
2017-Oct-09 15:00N 37°33' W 000°31'1212.3
2017-Oct-09 14:01N 37°25' W 000°43'012.8
2017-Oct-09 14:00N 37°25' W 000°43'612.5
2017-Oct-09 13:30N 37°21' W 000°49'37611.4
2017-Oct-08 04:36N 36°25' W 008°34'211.5
2017-Oct-08 04:25N 36°25' W 008°37'511.5
2017-Oct-08 04:00N 36°27' W 008°42'611.6
2017-Oct-08 03:30N 36°28' W 008°49'612.0
2017-Oct-08 03:00N 36°30' W 008°57'612.4
2017-Oct-08 02:30N 36°31' W 009°04'612.0
2017-Oct-08 01:58N 36°33' W 009°12'511.7
2017-Oct-08 01:30N 36°36' W 009°18'612.2
2017-Oct-08 01:00N 36°40' W 009°23'612.0
2017-Oct-08 00:30N 36°44' W 009°29'611.8
2017-Oct-08 00:00N 36°48' W 009°33'612.2
2017-Oct-07 23:30N 36°54' W 009°35'612.2
2017-Oct-07 23:00N 37°00' W 009°37'812.1
2017-Oct-07 22:23N 37°08' W 009°39'512.2
2017-Oct-07 22:00N 37°12' W 009°40'612.4
2017-Oct-07 21:30N 37°18' W 009°42'612.2
2017-Oct-07 21:00N 37°24' W 009°44'  
Track history (hours):
 
Tides and Currents Weather Stations Pressure Air Temp Water Temp Dewpoint Dewpoint Depression Visibility Wind Speed Wind Dir Waves Ship Positions

Gures

Last reported at 2017-Oct-17 19:54 UTC. Time now 2017-Oct-20 19:36 UTC.
Position N 39°30' W 009°49'.

Length 118 m; draft 4.7 m.

Type: Cargo ship. MMSI: 255805981.

Date/timePositionNaut miles runAvg speedWind from/ knotsBaromVisibWave heightAir tempDewpointWater temp
2017-Oct-17 19:54N 39°30' W 009°49'511.8
2017-Oct-17 19:30N 39°26' W 009°49'611.8
2017-Oct-17 19:00N 39°20' W 009°49'611.8
2017-Oct-17 18:30N 39°14' W 009°50'611.7
2017-Oct-17 18:00N 39°08' W 009°50'611.9
2017-Oct-17 17:30N 39°02' W 009°50'612.2
2017-Oct-17 17:00N 38°56' W 009°50'612.2
2017-Oct-17 16:30N 38°50' W 009°50'612.4
2017-Oct-17 16:00N 38°44' W 009°50'612.2
2017-Oct-17 15:30N 38°38' W 009°48'612.4
2017-Oct-17 15:00N 38°32' W 009°46'612.4
2017-Oct-17 14:30N 38°26' W 009°45'612.5
2017-Oct-17 14:00N 38°19' W 009°43'612.3
2017-Oct-17 13:29N 38°13' W 009°42'612.2
2017-Oct-17 13:00N 38°07' W 009°41'612.1
2017-Oct-17 12:30N 38°02' W 009°39'612.1
2017-Oct-17 12:00N 37°56' W 009°36'611.9
2017-Oct-17 11:30N 37°50' W 009°35'6011.4
2017-Oct-17 06:15N 36°52' W 009°17'1411.5
2017-Oct-17 05:01N 36°44' W 009°02'112.1
2017-Oct-17 04:57N 36°43' W 009°01'611.7
2017-Oct-17 04:27N 36°42' W 008°54'611.8
2017-Oct-17 03:56N 36°39' W 008°47'2611.9
2017-Oct-17 01:43N 36°31' W 008°16'611.8
2017-Oct-17 01:12N 36°30' W 008°09'13112.3
2017-Oct-16 14:33N 35°58' W 005°31'112.6
2017-Oct-16 14:30N 35°57' W 005°30'4 0.3
2017-Oct-16 02:22N 35°53' W 005°30'2 2.6
2017-Oct-16 01:39N 35°55' W 005°31'3 6.5
2017-Oct-16 01:15N 35°54' W 005°34'0 1.4
2017-Oct-16 01:00N 35°54' W 005°34'1 1.0
2017-Oct-16 00:06N 35°54' W 005°35'0 3.6
2017-Oct-16 00:00N 35°54' W 005°35'2 3.7
2017-Oct-15 23:26N 35°56' W 005°34'3 5.7
2017-Oct-15 23:00N 35°58' W 005°32'2 4.5
2017-Oct-15 22:30N 35°58' W 005°29'4 7.1
2017-Oct-15 22:00N 35°59' W 005°25'611.7
2017-Oct-15 21:30N 35°56' W 005°19'2 3.3
2017-Oct-15 21:00N 35°54' W 005°19'0 0.0
2017-Oct-15 20:30N 35°54' W 005°19'0 0.0
2017-Oct-15 20:00N 35°54' W 005°19'0 0.0
2017-Oct-15 19:30N 35°54' W 005°19'0 0.0
2017-Oct-15 19:00N 35°54' W 005°19'0 0.0
2017-Oct-15 18:30N 35°54' W 005°19'1 1.9
2017-Oct-15 18:00N 35°55' W 005°19'3 5.7
2017-Oct-15 17:30N 35°57' W 005°16'21612.1
2017-Oct-14 23:38N 37°13' W 001°04'213.3
2017-Oct-14 23:30N 37°14' W 001°03'713.1
2017-Oct-14 22:59N 37°19' W 000°56'612.8
2017-Oct-14 22:29N 37°23' W 000°50'612.6
2017-Oct-14 21:59N 37°27' W 000°44'612.7
2017-Oct-14 21:30N 37°31' W 000°39'612.9
2017-Oct-14 21:00N 37°35' W 000°33'612.9
2017-Oct-14 20:31N 37°41' W 000°28'712.8
2017-Oct-14 19:59N 37°46' W 000°24'712.9
2017-Oct-14 19:27N 37°52' W 000°19'612.9
2017-Oct-14 18:58N 37°58' W 000°15'612.9
2017-Oct-14 18:30N 38°02' W 000°11'612.9
2017-Oct-14 18:01N 38°08' W 000°06'713.0
2017-Oct-14 17:30N 38°13' W 000°02'613.0
2017-Oct-14 17:01N 38°19' E 000°03'612.9
2017-Oct-14 16:31N 38°24' E 000°07'612.8
2017-Oct-14 16:00N 38°30' E 000°12'612.9
2017-Oct-14 15:30N 38°35' E 000°16'612.8
2017-Oct-14 15:01N 38°40' E 000°21'510.8
2017-Oct-14 14:30N 38°45' E 000°23'224 6.2
2017-Oct-13 02:08N 41°45' E 003°18'612.6
2017-Oct-13 01:41N 41°50' E 003°23'613.6
2017-Oct-13 01:14N 41°55' E 003°28'413.8
2017-Oct-13 00:58N 41°58' E 003°31'714.2
2017-Oct-13 00:30N 42°03' E 003°36'1014.0
2017-Oct-12 23:47N 42°11' E 003°44'513.8
2017-Oct-12 23:26N 42°15' E 003°48'613.7
2017-Oct-12 23:00N 42°20' E 003°53'713.8
2017-Oct-12 22:28N 42°25' E 003°60'713.8
2017-Oct-12 21:59N 42°30' E 004°06'714.0
2017-Oct-12 21:31N 42°35' E 004°11'713.9
2017-Oct-12 21:00N 42°41' E 004°17'713.5
2017-Oct-12 20:30N 42°46' E 004°23'713.6
2017-Oct-12 20:00N 42°51' E 004°29'713.6
2017-Oct-12 19:30N 42°57' E 004°34'713.6
2017-Oct-12 19:00N 43°02' E 004°40'713.3
2017-Oct-12 18:30N 43°07' E 004°46'713.5
2017-Oct-12 18:00N 43°12' E 004°52'713.6
2017-Oct-12 17:30N 43°18' E 004°57'611.4
2017-Oct-12 17:00N 43°23' E 004°59'2 3.3
2017-Oct-12 16:28N 43°24' E 005°01'0 0.0
2017-Oct-12 15:58N 43°24' E 005°01'0 0.0
2017-Oct-12 15:28N 43°24' E 005°01'0 0.0
2017-Oct-12 14:55N 43°24' E 005°01'0 0.0
2017-Oct-12 14:31N 43°24' E 005°01'0 0.0
2017-Oct-12 14:01N 43°24' E 005°01'0 0.0
2017-Oct-12 13:30N 43°24' E 005°01'0 0.0
2017-Oct-12 13:00N 43°24' E 005°01'0 0.0
2017-Oct-12 12:30N 43°24' E 005°01'0 0.0
2017-Oct-12 12:01N 43°24' E 005°01'0 0.0
2017-Oct-12 11:30N 43°24' E 005°01'0 0.0
2017-Oct-12 11:00N 43°24' E 005°01'0 0.0
2017-Oct-12 10:30N 43°24' E 005°01'0 0.0
2017-Oct-12 10:00N 43°24' E 005°01'0 0.0
2017-Oct-12 09:30N 43°24' E 005°01'0 0.0
2017-Oct-12 09:00N 43°24' E 005°01'0 0.0
2017-Oct-12 08:30N 43°24' E 005°01'0 0.0
2017-Oct-12 08:00N 43°24' E 005°01'0 0.0
2017-Oct-12 07:30N 43°24' E 005°01'0 0.0
2017-Oct-12 06:51N 43°24' E 005°01'0 0.0
2017-Oct-12 06:30N 43°24' E 005°01'0 0.0
2017-Oct-12 06:00N 43°24' E 005°01'0 0.0
2017-Oct-12 05:30N 43°24' E 005°01'0 0.0
2017-Oct-12 05:00N 43°24' E 005°01'0 0.0
2017-Oct-12 04:30N 43°24' E 005°01'0 0.0
2017-Oct-12 04:00N 43°24' E 005°01'0 0.0
2017-Oct-12 03:30N 43°24' E 005°01'0 0.0
2017-Oct-12 03:00N 43°24' E 005°01'0 0.0
2017-Oct-12 02:27N 43°24' E 005°01'0 0.0
2017-Oct-12 02:00N 43°24' E 005°01'0 0.0
2017-Oct-12 01:30N 43°24' E 005°01'0 0.0
2017-Oct-12 01:00N 43°24' E 005°01'0 0.0
2017-Oct-12 00:30N 43°24' E 005°01'0 0.0
2017-Oct-12 00:00N 43°24' E 005°01'0 0.0
2017-Oct-11 23:24N 43°24' E 005°01'0 0.0
2017-Oct-11 23:00N 43°24' E 005°01'0 0.0
2017-Oct-11 22:30N 43°24' E 005°01'0 0.0
2017-Oct-11 22:00N 43°24' E 005°01'0 0.0
2017-Oct-11 21:30N 43°24' E 005°01'0 0.0
2017-Oct-11 21:00N 43°24' E 005°01'0 0.0
2017-Oct-11 20:30N 43°24' E 005°01'0 0.0
2017-Oct-11 20:00N 43°24' E 005°01'0 0.0
2017-Oct-11 19:30N 43°24' E 005°01'0 0.0
2017-Oct-11 19:00N 43°24' E 005°01'0 0.0
2017-Oct-11 18:30N 43°24' E 005°01'0 0.0
2017-Oct-11 17:57N 43°24' E 005°01'0 0.0
2017-Oct-11 17:30N 43°24' E 005°01'0 0.0
2017-Oct-11 17:00N 43°24' E 005°01'27 1.6
2017-Oct-11 00:00N 42°58' E 004°52'4 8.8
2017-Oct-10 23:30N 42°55' E 004°49'4 9.0
2017-Oct-10 23:00N 42°51' E 004°45'4 8.8
2017-Oct-10 22:30N 42°48' E 004°42'5 9.2
2017-Oct-10 22:00N 42°45' E 004°37'611.0
2017-Oct-10 21:31N 42°40' E 004°32'611.9
2017-Oct-10 21:00N 42°36' E 004°27'612.2
2017-Oct-10 20:30N 42°31' E 004°22'36112.7
2017-Oct-09 15:59N 37°43' W 000°23'612.3
2017-Oct-09 15:30N 37°38' W 000°27'612.3
2017-Oct-09 15:00N 37°33' W 000°31'1212.3
2017-Oct-09 14:01N 37°25' W 000°43'012.8
2017-Oct-09 14:00N 37°25' W 000°43'612.5
2017-Oct-09 13:30N 37°21' W 000°49'37611.4
2017-Oct-08 04:36N 36°25' W 008°34'211.5
2017-Oct-08 04:25N 36°25' W 008°37'511.5
2017-Oct-08 04:00N 36°27' W 008°42'611.6
2017-Oct-08 03:30N 36°28' W 008°49'612.0
2017-Oct-08 03:00N 36°30' W 008°57'612.4
2017-Oct-08 02:30N 36°31' W 009°04'612.0
2017-Oct-08 01:58N 36°33' W 009°12'511.7
2017-Oct-08 01:30N 36°36' W 009°18'612.2
2017-Oct-08 01:00N 36°40' W 009°23'612.0
2017-Oct-08 00:30N 36°44' W 009°29'611.8
2017-Oct-08 00:00N 36°48' W 009°33'612.2
2017-Oct-07 23:30N 36°54' W 009°35'612.2
2017-Oct-07 23:00N 37°00' W 009°37'812.1
2017-Oct-07 22:23N 37°08' W 009°39'512.2
2017-Oct-07 22:00N 37°12' W 009°40'612.4
2017-Oct-07 21:30N 37°18' W 009°42'612.2
2017-Oct-07 21:00N 37°24' W 009°44'  

Dump ship's entire track history